Time;durP1;ratioP1;P1;durP2;ratioP2;P2;SDS_P1;SDS_P2;PMS_P1;PMS_P2;Temp;Humidity;BMP_temperature;BMP_pressure;BME280_temperature;BME280_humidity;BME280_pressure;Samples;Min_cycle;Max_cycle;Signal;HPM_P1;HPM_P2
2021/01/10 00:02:25;;;;;;;19.30;9.77;;;-2.30;96.40;;;;;;6195792;23;20008;-83
2021/01/10 00:04:52;;;;;;;22.25;10.63;;;-2.30;96.60;;;;;;6196471;23;20015;-83
2021/01/10 00:07:27;;;;;;;19.05;9.57;;;-2.30;96.70;;;;;;6194219;23;20007;-83
2021/01/10 00:09:53;;;;;;;23.38;11.95;;;-2.30;97.00;;;;;;6198193;23;20012;-82
2021/01/10 00:12:28;;;;;;;22.10;11.82;;;-2.30;97.10;;;;;;6209125;23;20004;-82
2021/01/10 00:14:54;;;;;;;23.10;12.05;;;-2.40;97.40;;;;;;6228596;23;20004;-81
2021/01/10 00:17:20;;;;;;;26.45;13.30;;;-2.40;97.80;;;;;;6230938;23;20305;-86
2021/01/10 00:19:47;;;;;;;29.00;14.90;;;-2.40;98.30;;;;;;6195175;23;20008;-83
2021/01/10 00:22:14;;;;;;;33.70;16.23;;;-2.50;98.70;;;;;;6193771;23;20008;-82
2021/01/10 00:24:40;;;;;;;29.98;15.35;;;-2.50;99.00;;;;;;6195093;23;20031;-83
2021/01/10 00:27:08;;;;;;;32.63;16.35;;;-2.60;99.40;;;;;;6219200;23;20009;-83
2021/01/10 00:29:35;;;;;;;36.78;16.27;;;-2.60;99.80;;;;;;6194227;23;20001;-83
2021/01/10 00:32:01;;;;;;;33.22;16.75;;;-2.60;99.90;;;;;;6195228;23;20501;-82
2021/01/10 00:34:26;;;;;;;29.48;14.90;;;-2.60;99.90;;;;;;6194116;23;20008;-82
2021/01/10 00:36:52;;;;;;;29.90;14.27;;;-2.60;99.90;;;;;;6220639;23;20012;-83
2021/01/10 00:39:18;;;;;;;29.63;15.68;;;-2.50;99.90;;;;;;6197277;23;20340;-83
2021/01/10 00:41:43;;;;;;;31.92;16.00;;;-2.50;99.90;;;;;;6221272;23;20043;-83
2021/01/10 00:44:09;;;;;;;33.63;17.10;;;-2.50;99.90;;;;;;6192851;23;20005;-82
2021/01/10 00:46:34;;;;;;;34.88;16.77;;;-2.60;99.90;;;;;;6198485;23;20012;-83
2021/01/10 00:49:00;;;;;;;39.15;16.90;;;-2.60;99.90;;;;;;6194005;23;20224;-82
2021/01/10 00:51:26;;;;;;;33.47;17.50;;;-2.70;99.90;;;;;;6193758;23;20051;-84
2021/01/10 00:53:52;;;;;;;34.17;16.45;;;-2.70;99.90;;;;;;6193263;23;20012;-82
2021/01/10 00:56:17;;;;;;;39.90;18.05;;;-2.70;99.90;;;;;;6223217;23;20031;-82
2021/01/10 00:58:44;;;;;;;34.80;17.02;;;-2.80;99.90;;;;;;6222170;23;20008;-83
2021/01/10 01:01:10;;;;;;;40.35;20.33;;;-2.80;99.90;;;;;;6223851;23;20000;-82
2021/01/10 01:03:36;;;;;;;40.08;18.30;;;-2.90;99.90;;;;;;6197596;23;20004;-83
2021/01/10 01:06:02;;;;;;;35.97;17.67;;;-2.90;99.90;;;;;;6197384;23;20023;-83
2021/01/10 01:08:28;;;;;;;33.70;15.40;;;-2.90;99.90;;;;;;6200257;23;20001;-83
2021/01/10 01:10:53;;;;;;;40.15;19.83;;;-2.90;99.90;;;;;;6200394;23;20054;-83
2021/01/10 01:13:19;;;;;;;37.53;17.23;;;-3.00;99.90;;;;;;6224528;23;20004;-83
2021/01/10 01:15:50;;;;;;;31.85;14.85;;;-3.00;99.90;;;;;;6208300;23;20005;-82
2021/01/10 01:18:18;;;;;;;31.80;15.55;;;-3.00;99.90;;;;;;6236230;23;19996;-83
2021/01/10 01:20:44;;;;;;;34.35;16.23;;;-3.00;99.90;;;;;;6223595;23;20459;-82
2021/01/10 01:23:10;;;;;;;29.88;14.95;;;-3.00;99.90;;;;;;6194091;23;20004;-83
2021/01/10 01:25:36;;;;;;;27.95;14.85;;;-3.10;99.90;;;;;;6221575;23;20007;-83
2021/01/10 01:28:02;;;;;;;33.83;15.68;;;-3.10;99.90;;;;;;6195368;23;20004;-82
2021/01/10 01:30:28;;;;;;;31.00;14.93;;;-3.10;99.90;;;;;;6195238;23;20058;-83
2021/01/10 01:32:54;;;;;;;33.58;15.98;;;-3.20;99.90;;;;;;6197389;23;20004;-83
2021/01/10 01:35:19;;;;;;;29.77;14.30;;;-3.20;99.90;;;;;;6222571;23;20009;-84
2021/01/10 01:37:45;;;;;;;29.15;14.70;;;-3.30;99.90;;;;;;6196447;23;20015;-83
2021/01/10 01:40:11;;;;;;;33.35;15.35;;;-3.30;99.90;;;;;;6222971;23;20004;-84
2021/01/10 01:42:37;;;;;;;27.90;13.98;;;-3.30;99.90;;;;;;6194336;23;20317;-84
2021/01/10 01:45:08;;;;;;;26.67;13.63;;;-3.40;99.90;;;;;;6195496;23;20013;-84
2021/01/10 01:47:35;;;;;;;35.53;17.35;;;-3.40;99.90;;;;;;6221553;23;20012;-82
2021/01/10 01:50:03;;;;;;;36.47;16.90;;;-3.50;99.90;;;;;;6221819;23;20005;-81
2021/01/10 01:52:29;;;;;;;30.60;14.02;;;-3.60;99.90;;;;;;6197154;23;20102;-82
2021/01/10 01:54:54;;;;;;;40.20;18.20;;;-3.70;99.90;;;;;;6222994;23;20008;-82
2021/01/10 01:57:21;;;;;;;41.45;19.00;;;-3.70;99.90;;;;;;6194922;23;20438;-82
2021/01/10 01:59:47;;;;;;;37.42;17.20;;;-3.80;99.90;;;;;;6221526;23;20368;-82
2021/01/10 02:02:12;;;;;;;36.60;17.98;;;-3.90;99.90;;;;;;6221289;23;20016;-82
2021/01/10 02:04:50;;;;;;;37.92;17.55;;;-3.90;99.90;;;;;;6227954;23;20001;-82
2021/01/10 02:07:25;;;;;;;37.00;17.70;;;-3.90;99.90;;;;;;6207497;23;20069;-82
2021/01/10 02:09:59;;;;;;;38.80;17.10;;;-4.00;99.90;;;;;;6228489;23;20006;-82
2021/01/10 02:12:28;;;;;;;37.95;16.83;;;-4.00;99.90;;;;;;6195475;23;20004;-82
2021/01/10 02:15:00;;;;;;;34.47;16.73;;;-4.00;99.90;;;;;;6222181;23;20012;-82
2021/01/10 02:17:29;;;;;;;;;;;-4.00;99.90;;;;;;6197559;23;20012;-83
2021/01/10 02:19:56;;;;;;;31.17;13.07;;;-4.00;99.90;;;;;;6198251;23;19908;-83
2021/01/10 02:22:26;;;;;;;34.08;15.30;;;-3.90;99.90;;;;;;6223542;23;20476;-85
2021/01/10 02:24:52;;;;;;;32.70;15.20;;;-3.90;99.90;;;;;;6196553;23;20009;-86
2021/01/10 02:27:19;;;;;;;29.77;12.75;;;-3.80;99.90;;;;;;6197636;23;20008;-85
2021/01/10 02:29:45;;;;;;;30.20;13.38;;;-3.80;99.90;;;;;;6223575;23;20004;-85
2021/01/10 02:32:11;;;;;;;28.33;13.75;;;-3.80;99.90;;;;;;6196308;23;20003;-85
2021/01/10 02:34:39;;;;;;;33.58;14.27;;;-3.80;99.90;;;;;;6224679;23;20028;-85
2021/01/10 02:37:10;;;;;;;27.55;12.73;;;-3.80;99.90;;;;;;6222542;23;20010;-85
2021/01/10 02:39:38;;;;;;;31.13;13.55;;;-3.80;99.90;;;;;;6225516;23;20056;-83
2021/01/10 02:42:17;;;;;;;28.25;12.30;;;-3.80;99.90;;;;;;6196326;23;20001;-85
2021/01/10 02:44:52;;;;;;;27.90;13.32;;;-3.80;99.90;;;;;;6195365;23;20009;-85
2021/01/10 02:47:18;;;;;;;36.55;15.18;;;-3.80;99.90;;;;;;6196163;23;20000;-86
2021/01/10 02:49:44;;;;;;;30.38;14.52;;;-3.80;99.90;;;;;;6222685;23;20056;-84
2021/01/10 02:52:10;;;;;;;28.73;13.07;;;-3.70;99.90;;;;;;6221068;23;20000;-83
2021/01/10 02:54:36;;;;;;;31.60;16.30;;;-3.80;99.90;;;;;;6221876;23;20031;-83
2021/01/10 02:57:07;;;;;;;34.03;14.73;;;-3.90;99.90;;;;;;6223519;23;20083;-85
2021/01/10 02:59:38;;;;;;;30.15;14.90;;;-3.90;99.90;;;;;;6196153;23;20009;-86
2021/01/10 03:02:06;;;;;;;28.43;13.80;;;-4.00;99.90;;;;;;6223107;23;19996;-84
2021/01/10 03:04:32;;;;;;;32.03;14.85;;;-4.10;99.90;;;;;;6197460;23;20028;-85
2021/01/10 03:07:00;;;;;;;29.65;13.65;;;-4.10;99.90;;;;;;6225066;23;20004;-83
2021/01/10 03:09:26;;;;;;;26.42;13.52;;;-4.20;99.90;;;;;;6200851;23;20008;-82
2021/01/10 03:11:55;;;;;;;30.70;14.85;;;-4.20;99.90;;;;;;6195835;23;20007;-85
2021/01/10 03:14:22;;;;;;;30.35;15.43;;;-4.30;99.90;;;;;;6219552;23;20027;-83
2021/01/10 03:16:49;;;;;;;29.98;14.25;;;-4.30;99.90;;;;;;6196707;23;20043;-82
2021/01/10 03:19:15;;;;;;;27.70;14.05;;;-4.40;99.90;;;;;;6230587;23;20001;-85
2021/01/10 03:21:41;;;;;;;28.00;13.73;;;-4.40;99.90;;;;;;6217808;23;20001;-83
2021/01/10 03:24:07;;;;;;;26.52;13.15;;;-4.40;99.90;;;;;;6192937;23;20015;-84
2021/01/10 03:26:32;;;;;;;31.60;14.18;;;-4.50;99.90;;;;;;6190680;23;20088;-82
2021/01/10 03:28:58;;;;;;;36.33;15.80;;;-4.50;99.90;;;;;;6190332;23;20012;-84
2021/01/10 03:31:24;;;;;;;28.60;13.57;;;-4.50;99.90;;;;;;6192931;23;20005;-84
2021/01/10 03:33:49;;;;;;;34.60;14.25;;;-4.50;99.90;;;;;;6217497;23;20143;-83
2021/01/10 03:36:16;;;;;;;31.33;13.82;;;-4.50;99.90;;;;;;6192667;23;20004;-84
2021/01/10 03:38:42;;;;;;;28.83;14.07;;;-4.50;99.90;;;;;;6194666;23;20051;-82
2021/01/10 03:41:08;;;;;;;36.38;15.30;;;-4.50;99.90;;;;;;6218349;23;20013;-85
2021/01/10 03:43:35;;;;;;;29.48;13.52;;;-4.50;99.90;;;;;;6192228;23;20000;-85
2021/01/10 03:46:02;;;;;;;28.42;13.32;;;-4.60;99.90;;;;;;6193127;23;20496;-85
2021/01/10 03:48:27;;;;;;;30.45;14.00;;;-4.60;99.90;;;;;;6191550;23;20000;-85
2021/01/10 03:50:53;;;;;;;30.35;14.93;;;-4.60;99.90;;;;;;6218041;23;20106;-84
2021/01/10 03:53:19;;;;;;;31.67;14.50;;;-4.60;99.90;;;;;;6219499;23;20366;-83
2021/01/10 03:55:45;;;;;;;28.27;13.13;;;-4.60;99.90;;;;;;6192287;23;20352;-83
2021/01/10 03:58:11;;;;;;;33.08;12.80;;;-4.70;99.90;;;;;;6221266;23;20071;-85
2021/01/10 04:00:36;;;;;;;29.60;13.43;;;-4.60;99.90;;;;;;6194677;23;20468;-85
2021/01/10 04:03:02;;;;;;;28.77;13.38;;;-4.60;99.90;;;;;;6193931;23;20000;-84
2021/01/10 04:05:28;;;;;;;31.52;13.52;;;-4.60;99.90;;;;;;6195117;23;20353;-84
2021/01/10 04:07:53;;;;;;;29.60;14.13;;;-4.70;99.90;;;;;;6192968;23;20011;-84
2021/01/10 04:10:19;;;;;;;31.13;13.93;;;-4.70;99.90;;;;;;6193489;23;20004;-85
2021/01/10 04:12:45;;;;;;;25.33;12.32;;;-4.70;99.90;;;;;;6197555;23;20027;-84
2021/01/10 04:15:10;;;;;;;28.35;12.90;;;-4.80;99.90;;;;;;6222895;23;20007;-85
2021/01/10 04:17:36;;;;;;;25.65;11.98;;;-4.80;99.90;;;;;;6197872;23;20005;-85
2021/01/10 04:20:02;;;;;;;27.45;12.52;;;-4.80;99.90;;;;;;6224135;23;20016;-83
2021/01/10 04:22:28;;;;;;;25.73;11.60;;;-4.80;99.90;;;;;;6198777;23;20059;-85
2021/01/10 04:24:53;;;;;;;30.08;12.27;;;-4.80;99.90;;;;;;6198527;23;20008;-86
2021/01/10 04:27:19;;;;;;;26.35;12.75;;;-4.80;99.90;;;;;;6226574;23;20067;-86
2021/01/10 04:29:45;;;;;;;29.88;13.90;;;-4.80;99.90;;;;;;6230780;23;19996;-82
2021/01/10 04:32:11;;;;;;;33.58;15.40;;;-4.80;99.90;;;;;;6205515;23;20011;-82
2021/01/10 04:34:37;;;;;;;29.75;13.77;;;-4.80;99.90;;;;;;6228744;23;20004;-85
2021/01/10 04:37:03;;;;;;;28.48;13.73;;;-4.90;99.90;;;;;;6200750;23;20005;-84
2021/01/10 04:39:29;;;;;;;29.88;13.10;;;-4.90;99.90;;;;;;6229017;23;20396;-85
2021/01/10 04:41:55;;;;;;;31.70;14.52;;;-5.00;99.90;;;;;;6200481;23;20024;-83
2021/01/10 04:44:23;;;;;;;30.42;12.77;;;-5.10;99.90;;;;;;6200870;23;20009;-83
2021/01/10 04:46:50;;;;;;;27.67;12.35;;;-5.10;99.90;;;;;;6228573;23;20011;-83
2021/01/10 04:49:17;;;;;;;24.85;11.13;;;-5.10;99.90;;;;;;6231575;23;20004;-84
2021/01/10 04:51:44;;;;;;;27.13;12.68;;;-5.10;99.90;;;;;;6229406;23;19996;-82
2021/01/10 04:54:12;;;;;;;28.08;12.80;;;-5.10;99.90;;;;;;6199528;23;20005;-86
2021/01/10 04:56:41;;;;;;;28.48;13.35;;;-5.20;99.90;;;;;;6227488;23;19996;-86
2021/01/10 04:59:07;;;;;;;29.83;12.35;;;-5.20;99.90;;;;;;6227766;23;20005;-84
2021/01/10 05:01:43;;;;;;;23.85;11.50;;;-5.30;99.90;;;;;;6200553;23;20019;-86
2021/01/10 05:04:09;;;;;;;25.27;11.05;;;-5.30;99.90;;;;;;6226393;23;20056;-83
2021/01/10 05:06:35;;;;;;;24.60;11.50;;;-5.40;99.90;;;;;;6202615;23;20004;-83
2021/01/10 05:09:03;;;;;;;25.48;11.65;;;-5.40;99.90;;;;;;6235044;23;20000;-83
2021/01/10 05:11:29;;;;;;;25.83;11.07;;;-5.40;99.90;;;;;;6237135;23;19997;-84
2021/01/10 05:13:55;;;;;;;27.83;11.68;;;-5.40;99.90;;;;;;6230479;23;20031;-87
2021/01/10 05:16:21;;;;;;;25.73;10.52;;;-5.40;99.90;;;;;;6231587;23;20075;-87
2021/01/10 05:18:54;;;;;;;27.05;12.48;;;-5.40;99.90;;;;;;6226792;23;20061;-87
2021/01/10 05:21:21;;;;;;;26.38;11.68;;;-5.40;99.90;;;;;;6205558;23;20027;-84
2021/01/10 05:23:57;;;;;;;25.20;10.95;;;-5.50;99.90;;;;;;6235979;23;20052;-82
2021/01/10 05:26:30;;;;;;;23.33;10.75;;;-5.50;99.90;;;;;;6237760;23;20352;-85
2021/01/10 05:29:03;;;;;;;29.17;12.80;;;-5.60;99.90;;;;;;6227209;23;20004;-86
2021/01/10 05:31:32;;;;;;;28.95;12.45;;;-5.60;99.90;;;;;;6226575;23;19993;-84
2021/01/10 05:33:57;;;;;;;26.63;11.02;;;-5.60;99.90;;;;;;6198768;23;20094;-83
2021/01/10 05:36:30;;;;;;;31.02;14.57;;;-5.70;99.90;;;;;;6200620;23;20004;-84
2021/01/10 05:38:57;;;;;;;32.92;14.15;;;-5.70;99.90;;;;;;6201713;23;20005;-85
2021/01/10 05:41:25;;;;;;;27.13;12.07;;;-5.70;99.90;;;;;;6198388;23;20009;-83
2021/01/10 05:43:59;;;;;;;29.42;12.50;;;-5.70;99.90;;;;;;6196366;23;20005;-85
2021/01/10 05:46:28;;;;;;;27.13;12.18;;;-5.70;99.90;;;;;;6195719;23;20004;-85
2021/01/10 05:48:54;;;;;;;29.48;12.23;;;-5.80;99.90;;;;;;6226122;23;20020;-82
2021/01/10 05:51:21;;;;;;;28.10;11.07;;;-5.80;99.90;;;;;;6238769;22;20195;-79
2021/01/10 05:53:46;;;;;;;29.90;12.32;;;-5.80;99.90;;;;;;6231564;23;20036;-84
2021/01/10 05:56:12;;;;;;;22.73;10.82;;;-5.70;99.90;;;;;;6230088;23;20071;-81
2021/01/10 05:58:39;;;;;;;24.35;11.15;;;-5.70;99.90;;;;;;6232328;23;20011;-84
2021/01/10 06:01:12;;;;;;;21.20;9.73;;;-5.70;99.90;;;;;;6200574;23;20055;-84
2021/01/10 06:03:39;;;;;;;27.00;10.68;;;-5.70;99.90;;;;;;6225205;23;20080;-84
2021/01/10 06:06:06;;;;;;;24.80;10.70;;;-5.70;99.90;;;;;;6225440;23;20075;-83
2021/01/10 06:08:37;;;;;;;22.48;10.00;;;-5.70;99.90;;;;;;6223264;23;20000;-84
2021/01/10 06:11:16;;;;;;;25.75;11.48;;;-5.70;99.90;;;;;;6197678;23;20007;-85
2021/01/10 06:13:49;;;;;;;22.38;10.13;;;-5.70;99.90;;;;;;6197879;23;20005;-86
2021/01/10 06:16:17;;;;;;;32.42;13.55;;;-5.70;99.90;;;;;;6206713;23;20000;-86
2021/01/10 06:18:51;;;;;;;26.33;11.55;;;-5.70;99.90;;;;;;6225508;23;20079;-84
2021/01/10 06:21:22;;;;;;;23.35;11.23;;;-5.70;99.90;;;;;;6204633;23;20004;-83
2021/01/10 06:23:51;;;;;;;25.60;10.18;;;-5.70;99.90;;;;;;6204681;23;20023;-84
2021/01/10 06:26:19;;;;;;;18.88;8.98;;;-5.70;99.90;;;;;;6232549;23;20005;-83
2021/01/10 06:29:06;;;;;;;26.13;10.68;;;-5.70;99.90;;;;;;6227365;23;20524;-86
2021/01/10 06:31:41;;;;;;;26.40;10.82;;;-5.60;99.90;;;;;;6228648;23;20020;-85
2021/01/10 06:34:09;;;;;;;22.10;9.63;;;-5.60;99.90;;;;;;6231249;23;20001;-84
2021/01/10 06:36:39;;;;;;;20.83;9.43;;;-5.60;99.90;;;;;;6226707;23;20005;-85
2021/01/10 06:39:14;;;;;;;24.80;9.55;;;-5.50;99.90;;;;;;6226244;23;20012;-84
2021/01/10 06:42:08;;;;;;;22.17;9.98;;;-5.50;99.90;;;;;;6198745;23;20004;-82
2021/01/10 06:44:40;;;;;;;28.45;12.60;;;-5.50;99.90;;;;;;6201458;23;20031;-81
2021/01/10 06:47:06;;;;;;;35.28;14.75;;;-5.40;99.90;;;;;;6208881;23;19997;-85
2021/01/10 06:49:34;;;;;;;29.08;13.50;;;-5.30;99.90;;;;;;6207633;23;20012;-81
2021/01/10 06:52:04;;;;;;;36.13;14.93;;;-5.30;99.90;;;;;;6233672;23;20001;-79
2021/01/10 06:54:38;;;;;;;35.05;13.90;;;-5.20;99.90;;;;;;6205906;23;20007;-84
2021/01/10 06:57:04;;;;;;;35.08;15.48;;;-5.30;99.90;;;;;;6233320;23;20015;-85
2021/01/10 06:59:31;;;;;;;38.28;14.75;;;-5.30;99.90;;;;;;6233261;23;20001;-85
2021/01/10 07:01:58;;;;;;;33.72;14.38;;;-5.30;99.90;;;;;;6235123;23;20011;-84
2021/01/10 07:04:44;;;;;;;29.08;13.57;;;-5.30;99.90;;;;;;6235204;23;20000;-82
2021/01/10 07:07:33;;;;;;;30.83;13.52;;;-5.30;99.90;;;;;;6231900;23;20000;-82
2021/01/10 07:09:59;;;;;;;26.15;10.95;;;-5.30;99.90;;;;;;6233974;23;20001;-83
2021/01/10 07:12:25;;;;;;;24.98;10.30;;;-5.20;99.90;;;;;;6234100;23;20374;-84
2021/01/10 07:14:51;;;;;;;27.67;12.05;;;-5.10;99.90;;;;;;6232967;23;20235;-83
2021/01/10 07:17:18;;;;;;;30.13;12.82;;;-5.10;99.90;;;;;;6233184;23;20000;-84
2021/01/10 07:19:48;;;;;;;28.33;11.27;;;-5.10;99.90;;;;;;6224936;23;20323;-82
2021/01/10 07:22:25;;;;;;;30.08;12.13;;;-5.00;99.90;;;;;;6232157;23;20020;-83
2021/01/10 07:24:51;;;;;;;26.42;9.77;;;-5.00;99.90;;;;;;6231691;23;20001;-81
2021/01/10 07:27:35;;;;;;;23.88;9.98;;;-4.90;99.90;;;;;;6234387;23;20015;-83
2021/01/10 07:30:23;;;;;;;26.00;11.48;;;-4.80;99.90;;;;;;6230661;23;20056;-84
2021/01/10 07:32:50;;;;;;;27.83;12.05;;;-4.80;99.90;;;;;;6236376;23;19992;-84
2021/01/10 07:35:15;;;;;;;32.22;14.32;;;-4.70;99.90;;;;;;6234146;23;20001;-83
2021/01/10 07:37:43;;;;;;;36.72;14.43;;;-4.60;99.90;;;;;;6220683;23;20001;-80
2021/01/10 07:40:09;;;;;;;27.98;11.10;;;-4.50;99.90;;;;;;6222685;23;20012;-83
2021/01/10 07:42:40;;;;;;;27.70;10.98;;;-4.40;99.90;;;;;;6194289;23;20321;-83
2021/01/10 07:45:39;;;;;;;34.50;13.07;;;-4.40;99.90;;;;;;6196512;23;20024;-85
2021/01/10 07:47:59;;;;;;;32.70;12.77;;;-4.30;99.90;;;;;;6217264;23;20084;-82
2021/01/10 07:50:25;;;;;;;26.88;11.88;;;-4.20;99.90;;;;;;6197502;23;20023;-82
2021/01/10 07:52:58;;;;;;;30.23;12.15;;;-4.10;99.90;;;;;;6206651;23;20046;-83
2021/01/10 07:55:29;;;;;;;35.95;14.85;;;-4.10;99.90;;;;;;6233508;23;20031;-83
2021/01/10 07:58:01;;;;;;;34.88;14.80;;;-4.10;99.90;;;;;;6208091;23;20015;-85
2021/01/10 08:00:45;;;;;;;29.40;12.27;;;-4.20;99.90;;;;;;6204824;23;20031;-82
2021/01/10 08:03:25;;;;;;;40.40;16.17;;;-4.10;99.90;;;;;;6231711;23;20069;-84
2021/01/10 08:06:05;;;;;;;44.90;17.25;;;-4.00;99.90;;;;;;6201610;23;20011;-84
2021/01/10 08:08:45;;;;;;;45.58;17.60;;;-4.00;99.90;;;;;;6206765;23;20603;-82
2021/01/10 08:11:11;;;;;;;41.13;15.50;;;-3.90;99.90;;;;;;6208322;23;20004;-82
2021/01/10 08:13:44;;;;;;;40.83;15.57;;;-3.90;99.90;;;;;;6198637;23;20000;-82
2021/01/10 08:16:30;;;;;;;44.05;17.02;;;-3.80;99.90;;;;;;6204936;23;20095;-83
2021/01/10 08:19:00;;;;;;;42.13;17.17;;;-3.60;99.90;;;;;;6203001;23;20020;-83
2021/01/10 08:21:26;;;;;;;35.92;14.30;;;-3.50;99.90;;;;;;6230417;23;20118;-81
2021/01/10 08:23:56;;;;;;;39.45;17.00;;;-3.40;99.90;;;;;;6202925;23;20008;-82
2021/01/10 08:26:22;;;;;;;39.40;18.20;;;-3.40;99.50;;;;;;6239281;23;20043;-81
2021/01/10 08:28:51;;;;;;;36.20;15.23;;;-3.50;99.30;;;;;;6196175;23;20031;-82
2021/01/10 08:31:21;;;;;;;44.17;17.40;;;-3.50;99.90;;;;;;6191487;23;20004;-82
2021/01/10 08:33:48;;;;;;;44.08;18.02;;;-3.40;99.70;;;;;;6191935;23;20005;-81
2021/01/10 08:36:21;;;;;;;44.03;17.73;;;-3.40;99.90;;;;;;6190883;23;20058;-82
2021/01/10 08:38:53;;;;;;;41.63;15.98;;;-3.30;99.70;;;;;;6225556;23;20026;-83
2021/01/10 08:41:30;;;;;;;36.78;15.60;;;-3.20;99.90;;;;;;6229526;23;20441;-83
2021/01/10 08:44:12;;;;;;;38.28;17.60;;;-3.10;99.50;;;;;;6223827;23;20001;-83
2021/01/10 08:46:40;;;;;;;37.42;17.15;;;-3.00;98.50;;;;;;6196541;23;20027;-83
2021/01/10 08:49:06;;;;;;;40.92;17.85;;;-3.00;97.60;;;;;;6198006;23;20004;-81
2021/01/10 08:51:36;;;;;;;43.58;17.65;;;-3.30;98.90;;;;;;6224217;23;20012;-81
2021/01/10 08:54:17;;;;;;;37.75;17.50;;;-3.20;99.50;;;;;;6205734;23;20005;-82
2021/01/10 08:56:45;;;;;;;44.60;18.05;;;-3.10;98.70;;;;;;6200611;23;20004;-82
2021/01/10 08:59:11;;;;;;;34.25;15.63;;;-3.10;99.30;;;;;;6229917;23;20007;-81
2021/01/10 09:01:38;;;;;;;45.17;19.58;;;-3.00;98.90;;;;;;6198182;23;20095;-82
2021/01/10 09:04:15;;;;;;;34.30;16.15;;;-3.00;98.40;;;;;;6228058;23;20001;-83
2021/01/10 09:07:07;;;;;;;41.28;18.35;;;-2.90;99.60;;;;;;6207196;23;20394;-82
2021/01/10 09:09:46;;;;;;;40.70;18.25;;;-2.70;98.00;;;;;;6206913;23;20004;-82
2021/01/10 09:12:30;;;;;;;38.85;17.27;;;-2.70;97.50;;;;;;6234548;23;19997;-83
2021/01/10 09:15:11;;;;;;;36.97;14.32;;;-2.70;97.70;;;;;;6203410;23;20032;-83
2021/01/10 09:17:59;;;;;;;39.50;15.90;;;-2.70;98.30;;;;;;6223661;23;20499;-84
2021/01/10 09:20:37;;;;;;;31.17;14.05;;;-2.60;98.40;;;;;;6222822;23;20032;-84
2021/01/10 09:23:09;;;;;;;43.80;19.33;;;-2.50;98.30;;;;;;6221986;23;20063;-84
2021/01/10 09:25:35;;;;;;;38.30;16.85;;;-2.50;96.80;;;;;;6194779;23;20036;-84
2021/01/10 09:28:16;;;;;;;36.70;15.05;;;-2.50;97.70;;;;;;6223356;23;20008;-84
2021/01/10 09:30:44;;;;;;;33.28;15.02;;;-2.50;97.80;;;;;;6195546;23;20062;-84
2021/01/10 09:33:10;;;;;;;34.92;15.63;;;-2.40;97.80;;;;;;6194831;23;20001;-81
2021/01/10 09:35:44;;;;;;;30.08;14.95;;;-2.50;96.90;;;;;;6194514;23;20016;-81
2021/01/10 09:38:12;;;;;;;23.63;11.77;;;-2.40;97.80;;;;;;6197979;23;20517;-81
2021/01/10 09:40:58;;;;;;;21.92;11.18;;;-2.30;97.90;;;;;;6195242;23;20005;-81
2021/01/10 09:43:42;;;;;;;32.25;14.32;;;-2.30;97.40;;;;;;6222109;23;20024;-83
2021/01/10 09:46:32;;;;;;;40.63;16.90;;;-2.20;96.80;;;;;;6198992;23;20027;-82
2021/01/10 09:49:16;;;;;;;30.05;13.60;;;-2.20;96.60;;;;;;6221671;23;20023;-81
2021/01/10 09:51:54;;;;;;;27.30;13.82;;;-2.30;95.30;;;;;;6195902;23;20000;-80
2021/01/10 09:54:27;;;;;;;24.20;11.57;;;-2.30;97.10;;;;;;6194109;23;20095;-81
2021/01/10 09:56:55;;;;;;;21.48;9.45;;;-2.20;96.70;;;;;;6193965;23;20012;-81
2021/01/10 09:59:45;;;;;;;24.58;11.40;;;-2.10;97.20;;;;;;6194877;23;20008;-81
2021/01/10 10:02:19;;;;;;;18.15;9.50;;;-2.00;97.20;;;;;;6220059;23;20004;-82
2021/01/10 10:04:52;;;;;;;27.58;14.00;;;-1.70;96.80;;;;;;6220303;23;20001;-82
2021/01/10 10:07:42;;;;;;;27.65;14.15;;;-1.70;96.00;;;;;;6194133;23;20012;-81
2021/01/10 10:10:21;;;;;;;35.33;16.00;;;-1.40;96.70;;;;;;6220866;23;20000;-81
2021/01/10 10:13:11;;;;;;;28.58;14.30;;;-1.20;99.40;;;;;;6221355;23;20071;-81
2021/01/10 10:15:42;;;;;;;31.40;15.00;;;;;;;;;;6220436;23;20009;-81
2021/01/10 10:18:31;;;;;;;31.85;15.60;;;-1.00;99.90;;;;;;6192423;23;20056;-81
2021/01/10 10:20:58;;;;;;;30.27;13.48;;;-1.10;93.20;;;;;;6220719;23;20437;-81
2021/01/10 10:23:24;;;;;;;39.75;17.83;;;-1.10;93.50;;;;;;6194907;23;20005;-81
2021/01/10 10:25:51;;;;;;;37.22;17.38;;;-1.20;93.00;;;;;;6220974;23;20069;-81
2021/01/10 10:28:20;;;;;;;37.20;16.33;;;-1.30;92.80;;;;;;6220617;23;20027;-82
2021/01/10 10:30:49;;;;;;;40.42;17.95;;;-1.30;93.60;;;;;;6193490;23;20005;-82
2021/01/10 10:33:14;;;;;;;45.60;20.30;;;-1.30;94.00;;;;;;6192527;23;20055;-81
2021/01/10 10:35:40;;;;;;;43.83;19.27;;;-1.20;92.40;;;;;;6192524;23;20012;-80
2021/01/10 10:38:06;;;;;;;45.33;20.67;;;-1.50;92.70;;;;;;6219426;23;20079;-81
2021/01/10 10:40:32;;;;;;;57.30;21.73;;;-1.60;94.30;;;;;;6220782;23;20009;-81
2021/01/10 10:42:58;;;;;;;39.83;17.70;;;-1.60;94.10;;;;;;6194963;23;20012;-80
2021/01/10 10:45:24;;;;;;;46.33;21.20;;;-1.50;95.60;;;;;;6196284;23;20376;-80
2021/01/10 10:47:50;;;;;;;41.88;19.20;;;-1.20;94.90;;;;;;6221822;23;20019;-81
2021/01/10 10:50:15;;;;;;;42.28;18.75;;;-1.10;92.80;;;;;;6222101;23;19996;-81
2021/01/10 10:52:42;;;;;;;35.88;16.60;;;-1.30;93.50;;;;;;6194500;23;20000;-81
2021/01/10 10:55:11;;;;;;;37.55;17.52;;;-1.30;94.10;;;;;;6222248;23;20060;-80
2021/01/10 10:57:38;;;;;;;35.22;15.55;;;-1.30;93.10;;;;;;6218569;23;20352;-81
2021/01/10 11:00:05;;;;;;;42.25;20.05;;;-1.40;94.30;;;;;;6195646;23;20005;-82
2021/01/10 11:02:31;;;;;;;37.85;16.63;;;-1.20;99.90;;;;;;6235849;23;20053;-79
2021/01/10 11:04:56;;;;;;;38.08;17.98;;;-1.00;95.10;;;;;;6229354;23;20012;-81
2021/01/10 11:07:22;;;;;;;36.30;16.88;;;-0.90;93.90;;;;;;6194893;23;20004;-81
2021/01/10 11:09:48;;;;;;;34.00;17.40;;;-0.70;93.80;;;;;;6196179;23;20004;-81
2021/01/10 11:12:15;;;;;;;34.42;16.80;;;-0.50;92.80;;;;;;6194976;23;20107;-81
2021/01/10 11:14:41;;;;;;;40.00;17.95;;;-0.50;92.70;;;;;;6225898;23;20035;-81
2021/01/10 11:17:07;;;;;;;35.13;16.65;;;-0.50;91.70;;;;;;6196784;23;20004;-81
2021/01/10 11:19:33;;;;;;;38.55;18.90;;;-0.50;91.50;;;;;;6222444;23;20449;-82
2021/01/10 11:22:03;;;;;;;40.92;20.42;;;-0.60;92.00;;;;;;6221991;23;20001;-82
2021/01/10 11:24:30;;;;;;;40.53;18.67;;;-0.90;92.20;;;;;;6194079;23;20016;-81
2021/01/10 11:26:56;;;;;;;39.00;17.73;;;-1.00;92.60;;;;;;6194539;23;20036;-81
2021/01/10 11:29:22;;;;;;;43.78;19.85;;;-0.90;93.40;;;;;;6194068;23;20027;-82
2021/01/10 11:31:48;;;;;;;42.58;17.67;;;;;;;;;;6194400;23;20032;-81
2021/01/10 11:34:15;;;;;;;58.00;23.02;;;-1.00;93.80;;;;;;6194036;23;20005;-81
2021/01/10 11:36:47;;;;;;;41.83;18.63;;;-0.70;96.00;;;;;;6221288;23;20078;-82
2021/01/10 11:39:14;;;;;;;41.38;18.40;;;-0.50;93.90;;;;;;6220322;23;20004;-81
2021/01/10 11:41:48;;;;;;;33.58;17.08;;;-0.60;93.40;;;;;;6192990;23;20009;-81
2021/01/10 11:44:14;;;;;;;31.58;14.35;;;-0.40;93.80;;;;;;6220159;23;20008;-81
2021/01/10 11:46:42;;;;;;;29.58;14.45;;;-0.10;93.40;;;;;;6193533;23;20023;-81
2021/01/10 11:49:09;;;;;;;35.97;18.58;;;0.20;91.70;;;;;;6193028;23;20103;-81
2021/01/10 11:51:34;;;;;;;32.42;16.65;;;0.00;90.30;;;;;;6222723;23;20003;-80
2021/01/10 11:54:00;;;;;;;32.25;15.50;;;0.10;91.30;;;;;;6202502;23;20040;-81
2021/01/10 11:56:26;;;;;;;32.72;16.50;;;0.40;91.40;;;;;;6227378;23;20003;-81
2021/01/10 11:58:51;;;;;;;30.40;15.55;;;0.70;90.40;;;;;;6199492;23;20043;-83
2021/01/10 12:01:17;;;;;;;33.40;17.00;;;0.80;89.70;;;;;;6202945;23;20301;-84
2021/01/10 12:03:48;;;;;;;33.20;16.00;;;0.80;87.40;;;;;;6203052;23;20001;-84
2021/01/10 12:06:21;;;;;;;28.88;14.85;;;0.80;88.10;;;;;;6203907;23;20004;-84
2021/01/10 12:08:47;;;;;;;34.30;15.80;;;0.90;88.20;;;;;;6202127;23;20024;-84
2021/01/10 12:11:17;;;;;;;30.40;15.40;;;0.90;85.40;;;;;;6199974;23;20001;-84
2021/01/10 12:13:44;;;;;;;31.48;14.40;;;0.80;86.40;;;;;;6201061;23;20064;-84
2021/01/10 12:16:14;;;;;;;30.00;15.18;;;0.60;86.30;;;;;;6228590;23;20000;-83
2021/01/10 12:18:40;;;;;;;26.98;13.52;;;0.40;87.40;;;;;;6230714;23;20000;-83
2021/01/10 12:21:07;;;;;;;30.52;14.98;;;0.30;88.40;;;;;;6202203;23;20005;-84
2021/01/10 12:23:33;;;;;;;25.20;13.80;;;0.40;88.90;;;;;;6200325;23;20103;-83
2021/01/10 12:25:59;;;;;;;30.95;15.18;;;0.40;90.00;;;;;;6200636;23;20008;-83
2021/01/10 12:28:25;;;;;;;34.15;14.30;;;0.40;89.80;;;;;;6200695;23;20007;-83
2021/01/10 12:30:50;;;;;;;32.38;15.43;;;0.70;89.50;;;;;;6200926;23;20023;-83
2021/01/10 12:33:16;;;;;;;28.63;14.63;;;0.90;88.20;;;;;;6226797;23;20004;-83
2021/01/10 12:35:41;;;;;;;27.27;13.55;;;1.00;88.00;;;;;;6202723;23;20004;-82
2021/01/10 12:38:07;;;;;;;27.83;13.70;;;1.10;86.80;;;;;;6227039;23;20000;-83
2021/01/10 12:40:33;;;;;;;28.23;13.43;;;1.00;85.30;;;;;;6234012;23;20029;-83